Time;durP1;ratioP1;P1;durP2;ratioP2;P2;SDS_P1;SDS_P2;PMS_P1;PMS_P2;Temp;Humidity;BMP_temperature;BMP_pressure;BME280_temperature;BME280_humidity;BME280_pressure;Samples;Min_cycle;Max_cycle;Signal;HPM_P1;HPM_P2
2024/04/10 00:00:59;;;;;;;4.45;3.50;;;;;;;16.71;100.00;99343.53;5385057;26;20000;-67
2024/04/10 00:03:28;;;;;;;7.22;3.90;;;;;;;16.69;100.00;99344.78;5327678;26;20322;-67
2024/04/10 00:05:58;;;;;;;5.47;3.85;;;;;;;16.73;100.00;99349.53;5415196;26;19995;-67
2024/04/10 00:08:25;;;;;;;5.35;3.70;;;;;;;16.66;100.00;99356.75;5414814;26;20006;-67
2024/04/10 00:10:51;;;;;;;5.25;3.58;;;;;;;16.61;100.00;99358.38;5385238;26;20307;-67
2024/04/10 00:13:17;;;;;;;5.53;3.70;;;;;;;16.57;100.00;99355.31;5385261;26;20009;-67
2024/04/10 00:15:42;;;;;;;7.07;4.10;;;;;;;16.55;100.00;99354.66;5355913;26;20036;-68
2024/04/10 00:18:10;;;;;;;6.22;3.60;;;;;;;16.61;100.00;99359.22;5355767;26;20026;-68
2024/04/10 00:20:36;;;;;;;6.22;3.35;;;;;;;16.53;100.00;99354.03;5385580;26;20011;-67
2024/04/10 00:23:05;;;;;;;6.32;3.63;;;;;;;16.57;100.00;99357.16;5355566;26;20004;-67
2024/04/10 00:25:34;;;;;;;4.72;3.08;;;;;;;16.54;100.00;99361.03;5415286;26;20003;-67
2024/04/10 00:28:00;;;;;;;8.18;3.80;;;;;;;16.53;100.00;99358.56;5385458;26;20003;-70
2024/04/10 00:30:26;;;;;;;6.10;3.65;;;;;;;16.51;100.00;99364.13;5384452;26;20010;-67
2024/04/10 00:32:53;;;;;;;7.13;3.70;;;;;;;16.48;100.00;99369.09;5413310;26;20014;-67
2024/04/10 00:35:22;;;;;;;7.60;3.90;;;;;;;16.48;100.00;99364.53;5414467;26;20003;-67
2024/04/10 00:37:48;;;;;;;4.97;3.38;;;;;;;16.51;100.00;99374.03;5355307;26;20429;-68
2024/04/10 00:40:14;;;;;;;7.43;3.63;;;;;;;16.53;100.00;99370.13;5414197;26;20019;-67
2024/04/10 00:42:39;;;;;;;6.13;3.45;;;;;;;16.52;100.00;99381.03;5384681;26;20078;-68
2024/04/10 00:45:05;;;;;;;6.15;3.80;;;;;;;16.53;100.00;99371.97;5414434;26;20020;-68
2024/04/10 00:47:31;;;;;;;5.28;3.53;;;;;;;16.48;100.00;99377.94;5383547;26;20011;-68
2024/04/10 00:49:57;;;;;;;6.43;3.55;;;;;;;16.49;100.00;99386.81;5382971;26;20353;-67
2024/04/10 00:52:23;;;;;;;5.13;3.47;;;;;;;16.46;100.00;99387.22;5412438;26;20011;-68
2024/04/10 00:54:49;;;;;;;7.10;3.45;;;;;;;16.44;100.00;99391.94;5412934;26;20023;-67
2024/04/10 00:57:15;;;;;;;4.47;3.17;;;;;;;16.42;100.00;99394.00;5412591;26;20014;-68
2024/04/10 00:59:41;;;;;;;6.15;3.58;;;;;;;16.43;100.00;99387.59;5414149;26;20425;-68
2024/04/10 01:02:07;;;;;;;7.40;3.70;;;;;;;16.41;100.00;99398.50;5414010;26;20004;-68
2024/04/10 01:04:35;;;;;;;4.65;3.30;;;;;;;16.46;100.00;99392.59;5384650;26;20011;-68
2024/04/10 01:07:08;;;;;;;6.47;3.88;;;;;;;16.50;100.00;99389.28;5355477;26;20448;-67
2024/04/10 01:09:34;;;;;;;6.53;4.00;;;;;;;16.36;100.00;99390.25;5355634;26;20012;-68
2024/04/10 01:12:01;;;;;;;7.05;4.18;;;;;;;16.33;100.00;99387.97;5385089;26;20000;-67
2024/04/10 01:14:29;;;;;;;6.60;4.30;;;;;;;16.30;100.00;99392.88;5384334;26;20011;-67
2024/04/10 01:16:56;;;;;;;6.00;3.78;;;;;;;16.28;100.00;99393.09;5384371;26;20004;-68
2024/04/10 01:19:23;;;;;;;8.80;4.78;;;;;;;16.29;100.00;99388.56;5384972;26;20014;-67
2024/04/10 01:21:49;;;;;;;8.73;4.55;;;;;;;16.30;100.00;99403.59;5383863;26;20007;-68
2024/04/10 01:24:15;;;;;;;6.60;4.28;;;;;;;16.31;100.00;99400.72;5354982;26;20000;-67
2024/04/10 01:26:42;;;;;;;7.00;4.00;;;;;;;16.29;100.00;99410.84;5326762;26;20004;-68
2024/04/10 01:29:09;;;;;;;7.43;3.90;;;;;;;16.28;100.00;99413.72;5355562;26;20097;-68
2024/04/10 01:31:34;;;;;;;6.93;3.80;;;;;;;16.26;100.00;99407.72;5413117;26;20004;-67
2024/04/10 01:34:00;;;;;;;6.53;4.03;;;;;;;16.23;100.00;99408.97;5383729;26;20074;-67
2024/04/10 01:36:27;;;;;;;5.18;4.00;;;;;;;16.21;100.00;99421.72;5383460;26;20004;-68
2024/04/10 01:38:53;;;;;;;6.43;3.72;;;;;;;16.21;100.00;99426.25;5384160;26;20429;-67
2024/04/10 01:41:18;;;;;;;7.30;4.20;;;;;;;16.19;100.00;99415.72;5354437;26;20008;-67
2024/04/10 01:43:44;;;;;;;5.47;4.05;;;;;;;16.14;100.00;99407.47;5413959;26;20450;-67
2024/04/10 01:46:10;;;;;;;6.60;3.65;;;;;;;16.20;100.00;99419.25;5412823;26;19996;-67
2024/04/10 01:48:36;;;;;;;5.55;3.50;;;;;;;16.20;100.00;99421.94;5410146;26;20007;-67
2024/04/10 01:51:02;;;;;;;6.60;3.95;;;;;;;16.18;100.00;99427.47;5410135;26;20490;-68
2024/04/10 01:53:27;;;;;;;6.10;4.15;;;;;;;16.17;100.00;99436.56;5410255;26;19999;-68
2024/04/10 01:55:53;;;;;;;5.55;3.60;;;;;;;16.14;100.00;99446.84;5381067;26;19999;-68
2024/04/10 01:58:19;;;;;;;6.22;4.28;;;;;;;16.11;100.00;99445.41;5381068;26;20021;-68
2024/04/10 02:00:45;;;;;;;7.05;4.22;;;;;;;16.06;100.00;99447.00;5410334;26;20014;-67
2024/04/10 02:03:11;;;;;;;7.97;4.40;;;;;;;16.01;100.00;99452.94;5383217;26;20069;-67
2024/04/10 02:05:37;;;;;;;8.30;5.10;;;;;;;16.00;100.00;99461.19;5383514;26;19999;-67
2024/04/10 02:08:03;;;;;;;8.73;5.28;;;;;;;15.97;100.00;99462.41;5383494;26;20003;-68
2024/04/10 02:10:31;;;;;;;10.38;6.13;;;;;;;15.93;100.00;99471.03;5354940;26;20008;-67
2024/04/10 02:12:57;;;;;;;10.20;5.90;;;;;;;15.86;100.00;99470.97;5341579;26;20331;-67
2024/04/10 02:15:24;;;;;;;8.48;6.07;;;;;;;15.80;100.00;99471.75;5257077;26;20025;-67
2024/04/10 02:17:49;;;;;;;10.68;6.55;;;;;;;15.75;100.00;99471.50;5341592;26;20008;-67
2024/04/10 02:20:35;;;;;;;8.80;6.07;;;;;;;15.70;100.00;99479.28;5293350;26;20008;-67
2024/04/10 02:23:02;;;;;;;10.80;7.03;;;;;;;15.65;100.00;99473.72;5284519;26;20064;-67
2024/04/10 02:25:32;;;;;;;10.25;6.40;;;;;;;15.59;100.00;99479.81;5256165;26;20001;-67
2024/04/10 02:27:59;;;;;;;9.07;6.28;;;;;;;15.56;100.00;99482.88;5298057;26;20000;-67
2024/04/10 02:30:25;;;;;;;10.43;6.82;;;;;;;15.52;100.00;99483.47;5344531;26;20008;-67
2024/04/10 02:32:50;;;;;;;11.15;7.05;;;;;;;15.49;100.00;99487.38;5318100;26;20000;-67
2024/04/10 02:35:17;;;;;;;12.18;7.00;;;;;;;15.52;100.00;99491.50;5317641;26;20077;-67
2024/04/10 02:37:44;;;;;;;9.52;6.72;;;;;;;15.47;100.00;99499.31;5346694;26;20076;-68
2024/04/10 02:40:09;;;;;;;12.05;7.45;;;;;;;15.47;100.00;99500.09;5346572;26;20020;-67
2024/04/10 02:42:35;;;;;;;14.82;7.93;;;;;;;15.46;100.00;99498.47;5346753;26;20019;-67
2024/04/10 02:45:01;;;;;;;13.15;7.75;;;;;;;15.42;100.00;99491.84;5382993;26;20022;-67
2024/04/10 02:47:29;;;;;;;13.98;8.52;;;;;;;15.43;100.00;99498.84;5450807;26;20510;-68
2024/04/10 02:49:55;;;;;;;16.50;9.07;;;;;;;15.41;100.00;99500.88;5451858;26;20002;-68
2024/04/10 02:52:21;;;;;;;13.23;7.80;;;;;;;15.39;100.00;99505.59;5422046;26;19999;-68
2024/04/10 02:54:46;;;;;;;9.68;6.97;;;;;;;15.41;100.00;99508.91;5452057;26;20432;-68
2024/04/10 02:57:12;;;;;;;10.55;7.15;;;;;;;15.41;100.00;99511.59;5422530;26;20068;-68
2024/04/10 02:59:38;;;;;;;10.50;6.43;;;;;;;15.41;100.00;99514.25;5392587;26;20006;-67
2024/04/10 03:02:04;;;;;;;13.35;7.95;;;;;;;15.43;100.00;99514.06;5421837;26;19998;-68
2024/04/10 03:04:29;;;;;;;12.38;8.18;;;;;;;15.41;100.00;99524.97;5421634;26;20123;-67
2024/04/10 03:06:57;;;;;;;12.02;7.50;;;;;;;15.48;100.00;99523.19;5451502;26;19999;-68
2024/04/10 03:09:23;;;;;;;11.75;7.38;;;;;;;15.45;100.00;99526.25;5421453;26;20421;-68
2024/04/10 03:11:50;;;;;;;11.77;7.18;;;;;;;15.45;100.00;99523.59;5334989;26;20068;-67
2024/04/10 03:14:16;;;;;;;12.82;7.10;;;;;;;15.50;100.00;99534.50;5421559;26;20010;-67
2024/04/10 03:16:42;;;;;;;9.65;6.68;;;;;;;15.54;100.00;99537.66;5392273;26;20068;-68
2024/04/10 03:19:08;;;;;;;11.45;6.63;;;;;;;15.57;100.00;99534.59;5421618;26;20401;-67
2024/04/10 03:21:34;;;;;;;10.70;7.40;;;;;;;15.60;100.00;99536.88;5451728;26;19995;-68
2024/04/10 03:23:59;;;;;;;9.15;6.07;;;;;;;15.63;100.00;99541.84;5392236;26;20397;-67
2024/04/10 03:26:25;;;;;;;13.20;8.15;;;;;;;15.68;100.00;99548.31;5450907;26;20068;-68
2024/04/10 03:28:51;;;;;;;10.98;6.97;;;;;;;15.71;100.00;99542.56;5421009;26;20098;-68
2024/04/10 03:31:17;;;;;;;10.70;7.25;;;;;;;15.76;100.00;99548.13;5420891;26;20444;-67
2024/04/10 03:33:43;;;;;;;13.15;7.20;;;;;;;15.84;100.00;99547.16;5450266;26;20501;-67
2024/04/10 03:36:09;;;;;;;16.80;8.60;;;;;;;15.88;100.00;99561.84;5420788;26;20002;-68
2024/04/10 03:38:34;;;;;;;12.45;7.53;;;;;;;15.93;100.00;99554.06;5391288;26;20097;-67
2024/04/10 03:41:00;;;;;;;13.30;8.63;;;;;;;15.98;100.00;99549.78;5420995;26;19994;-67
2024/04/10 03:43:27;;;;;;;12.13;7.50;;;;;;;16.12;100.00;99556.88;5391161;26;20321;-67
2024/04/10 03:45:53;;;;;;;15.60;8.15;;;;;;;16.06;100.00;99554.16;5391261;26;20014;-67
2024/04/10 03:48:19;;;;;;;14.85;7.72;;;;;;;16.09;100.00;99557.28;5451090;26;20421;-70
2024/04/10 03:50:44;;;;;;;12.70;8.32;;;;;;;16.05;100.00;99564.03;5420804;26;19995;-68
2024/04/10 03:53:12;;;;;;;18.63;10.50;;;;;;;16.03;100.00;99570.63;5420732;26;19997;-67
2024/04/10 03:55:40;;;;;;;16.73;9.68;;;;;;;16.02;100.00;99563.63;5392961;26;20349;-67
2024/04/10 03:58:10;;;;;;;19.17;9.98;;;;;;;16.01;100.00;99565.44;5391779;26;20002;-67
2024/04/10 04:00:35;;;;;;;19.88;11.45;;;;;;;15.99;100.00;99567.50;5420054;26;19995;-67
2024/04/10 04:03:07;;;;;;;26.35;11.80;;;;;;;15.95;100.00;99570.75;5279220;27;20001;-68
2024/04/10 04:05:36;;;;;;;28.00;12.05;;;;;;;15.96;100.00;99567.06;5279674;27;20013;-67
2024/04/10 04:08:02;;;;;;;20.40;11.82;;;;;;;16.00;100.00;99581.72;5251840;27;20013;-67
2024/04/10 04:10:28;;;;;;;22.13;11.30;;;;;;;16.05;100.00;99581.97;5224424;27;20080;-67
2024/04/10 04:12:54;;;;;;;21.15;11.90;;;;;;;16.12;100.00;99580.16;5191534;27;20007;-67
2024/04/10 04:15:21;;;;;;;33.22;12.30;;;;;;;16.16;100.00;99584.13;5218867;27;20353;-69
2024/04/10 04:17:50;;;;;;;17.85;11.57;;;;;;;16.23;100.00;99585.84;5191243;27;20009;-68
2024/04/10 04:20:16;;;;;;;22.55;11.65;;;;;;;16.26;100.00;99587.28;5218557;27;20130;-68
2024/04/10 04:22:42;;;;;;;16.08;11.07;;;;;;;16.25;100.00;99591.81;5163863;27;19998;-67
2024/04/10 04:25:08;;;;;;;22.67;12.43;;;;;;;16.28;100.00;99582.56;5219085;27;20002;-67
2024/04/10 04:27:33;;;;;;;17.83;10.40;;;;;;;16.37;100.00;99594.78;5164691;27;20006;-67
2024/04/10 04:29:59;;;;;;;21.15;10.52;;;;;;;16.40;100.00;99597.91;5217748;27;20372;-68
2024/04/10 04:32:25;;;;;;;15.07;10.05;;;;;;;16.43;100.00;99594.00;5190563;27;20075;-67
2024/04/10 04:34:51;;;;;;;17.17;10.80;;;;;;;16.52;100.00;99592.84;5331225;26;19995;-67
2024/04/10 04:37:17;;;;;;;11.93;9.10;;;;;;;16.61;100.00;99595.19;5360197;26;19999;-67
2024/04/10 04:39:42;;;;;;;14.95;9.73;;;;;;;16.69;100.00;99596.88;5389040;26;19999;-67
2024/04/10 04:42:08;;;;;;;14.48;9.18;;;;;;;16.71;100.00;99600.19;5418794;26;20002;-67
2024/04/10 04:44:34;;;;;;;13.93;9.43;;;;;;;16.68;100.00;99609.44;5382717;26;20009;-67
2024/04/10 04:47:01;;;;;;;17.08;10.43;;;;;;;16.71;100.00;99608.25;5419254;26;20437;-68
2024/04/10 04:49:26;;;;;;;16.95;9.50;;;;;;;16.79;100.00;99614.25;5419905;26;19999;-67
2024/04/10 04:51:55;;;;;;;15.93;9.25;;;;;;;16.75;100.00;99609.50;5390564;26;20006;-68
2024/04/10 04:54:21;;;;;;;19.02;8.77;;;;;;;16.75;100.00;99613.00;5421531;26;20006;-67
2024/04/10 04:56:46;;;;;;;11.40;7.90;;;;;;;16.79;100.00;99624.16;5420467;26;20068;-68
2024/04/10 04:59:13;;;;;;;13.38;8.82;;;;;;;16.86;100.00;99622.34;5384469;26;20010;-67
2024/04/10 05:01:41;;;;;;;16.90;9.18;;;;;;;17.05;100.00;99624.31;5295652;26;20073;-67
2024/04/10 05:06:54;;;;;;;16.42;9.48;;;;;;;17.20;100.00;99630.34;5384321;26;19999;-68
2024/04/10 05:09:20;;;;;;;13.13;7.82;;;;;;;17.30;100.00;99632.66;5384841;26;20010;-68
2024/04/10 05:11:46;;;;;;;13.00;7.93;;;;;;;17.41;100.00;99637.44;5413924;26;19999;-67
2024/04/10 05:14:15;;;;;;;12.05;7.82;;;;;;;17.57;100.00;99631.75;5325566;26;20496;-67
2024/04/10 05:16:40;;;;;;;12.18;7.30;;;;;;;17.73;100.00;99629.50;5442130;26;19999;-69
2024/04/10 05:19:07;;;;;;;10.77;7.32;;;;;;;17.98;100.00;99633.28;5366179;26;20014;-68
2024/04/10 05:21:33;;;;;;;10.32;6.95;;;;;;;18.10;100.00;99637.00;5414734;26;19999;-68
2024/04/10 05:24:00;;;;;;;10.15;7.28;;;;;;;18.29;100.00;99640.72;5390715;26;20003;-68
2024/04/10 05:26:26;;;;;;;11.57;6.75;;;;;;;18.41;100.00;99649.84;5417088;26;20021;-69
2024/04/10 05:28:52;;;;;;;15.75;8.52;;;;;;;18.42;100.00;99646.09;5358298;26;20498;-69
2024/04/10 05:31:19;;;;;;;26.27;11.10;;;;;;;18.41;100.00;99648.00;5387917;26;20003;-68
2024/04/10 05:33:45;;;;;;;24.52;11.85;;;;;;;18.45;100.00;99651.91;5387160;26;20015;-67
2024/04/10 05:36:11;;;;;;;21.80;10.38;;;;;;;18.60;100.00;99658.94;5372906;26;20415;-67
2024/04/10 05:38:37;;;;;;;26.80;12.15;;;;;;;18.73;100.00;99658.94;5382492;26;20010;-69
2024/04/10 05:41:03;;;;;;;25.27;12.13;;;;;;;18.84;100.00;99659.09;5415696;26;20011;-68
2024/04/10 05:43:29;;;;;;;26.60;12.88;;;;;;;18.84;100.00;99659.09;5412565;26;20027;-68
2024/04/10 05:45:55;;;;;;;23.40;12.15;;;;;;;18.98;100.00;99654.50;5417105;26;20341;-69
2024/04/10 05:48:24;;;;;;;23.23;11.63;;;;;;;19.13;100.00;99664.00;5387638;26;20003;-67
2024/04/10 05:51:00;;;;;;;24.30;12.68;;;;;;;19.37;100.00;99663.28;5354596;26;19999;-67
2024/04/10 05:53:26;;;;;;;35.05;15.93;;;;;;;19.40;100.00;99662.91;5386216;26;20448;-68
2024/04/10 05:55:53;;;;;;;40.33;17.73;;;;;;;19.58;100.00;99675.66;5354455;26;20008;-68
2024/04/10 05:58:19;;;;;;;29.30;15.23;;;;;;;19.65;100.00;99674.56;5388891;26;20027;-69
2024/04/10 06:00:46;;;;;;;33.88;17.42;;;;;;;19.78;100.00;99671.81;5388648;26;20347;-67
2024/04/10 06:03:12;;;;;;;41.50;20.45;;;;;;;19.78;100.00;99679.06;5448326;26;20009;-67
2024/04/10 06:05:38;;;;;;;39.30;19.98;;;;;;;19.76;100.00;99673.91;5418242;26;20035;-68
2024/04/10 06:08:05;;;;;;;35.47;19.50;;;;;;;19.87;100.00;99689.38;5416728;26;19999;-67
2024/04/10 06:10:30;;;;;;;41.05;21.42;;;;;;;19.93;100.00;99683.13;5382548;26;20015;-67
2024/04/10 06:12:56;;;;;;;42.45;20.95;;;;;;;20.26;100.00;99684.81;5383336;26;20069;-66
2024/04/10 06:15:23;;;;;;;40.17;19.90;;;;;;;20.58;100.00;99695.34;5369001;26;20427;-66
2024/04/10 06:17:49;;;;;;;46.47;24.13;;;;;;;20.73;100.00;99695.81;5448970;26;19995;-66
2024/04/10 06:20:15;;;;;;;46.03;21.92;;;;;;;20.83;100.00;99682.66;5419202;26;20006;-66
2024/04/10 06:22:41;;;;;;;47.22;22.38;;;;;;;20.99;100.00;99689.34;5453748;26;20398;-66
2024/04/10 06:25:09;;;;;;;48.05;23.40;;;;;;;21.13;100.00;99694.41;5452516;26;20421;-67
2024/04/10 06:27:34;;;;;;;39.22;22.40;;;;;;;21.13;100.00;99694.41;5393009;26;20281;-67
2024/04/10 06:30:00;;;;;;;32.60;16.30;;;;;;;21.17;100.00;99694.78;5422525;26;20002;-67
2024/04/10 06:32:26;;;;;;;24.35;14.65;;;;;;;21.35;100.00;99689.38;5363274;26;20005;-70
2024/04/10 06:34:52;;;;;;;24.00;13.40;;;;;;;21.54;100.00;99691.03;5392916;26;20027;-67
2024/04/10 06:37:18;;;;;;;19.88;11.15;;;;;;;21.63;100.00;99689.66;5422686;26;20011;-66
2024/04/10 06:39:44;;;;;;;18.13;10.30;;;;;;;21.85;100.00;99698.94;5392938;26;20495;-67
2024/04/10 06:42:12;;;;;;;17.20;8.27;;;;;;;22.10;100.00;99688.81;5450843;26;20076;-67
2024/04/10 06:44:38;;;;;;;11.95;8.20;;;;;;;22.29;100.00;99692.28;5393045;26;20011;-67
2024/04/10 06:47:04;;;;;;;10.73;6.82;;;;;;;22.35;100.00;99696.75;5384816;26;20441;-67
2024/04/10 06:49:31;;;;;;;11.52;7.07;;;;;;;22.35;100.00;99697.59;5356102;26;20512;-67
2024/04/10 06:51:57;;;;;;;11.68;6.95;;;;;;;22.35;100.00;99707.56;5385750;26;19999;-67
2024/04/10 06:54:24;;;;;;;12.07;6.63;;;;;;;22.28;100.00;99699.56;5356862;26;20011;-67
2024/04/10 06:56:54;;;;;;;9.82;6.40;;;;;;;22.35;100.00;99704.88;5358905;26;20070;-67
2024/04/10 06:59:20;;;;;;;8.05;5.32;;;;;;;22.20;100.00;99718.00;5356920;26;20006;-67
2024/04/10 07:01:49;;;;;;;8.10;5.90;;;;;;;22.11;100.00;99711.28;5357327;26;20011;-67
2024/04/10 07:04:18;;;;;;;9.88;5.85;;;;;;;21.91;100.00;99719.66;5327262;26;20499;-69
2024/04/10 07:06:44;;;;;;;8.02;5.50;;;;;;;21.83;100.00;99721.88;5298731;26;20343;-67
2024/04/10 07:09:10;;;;;;;8.63;5.45;;;;;;;21.82;100.00;99726.44;5264464;26;20000;-67
2024/04/10 07:11:37;;;;;;;9.35;6.00;;;;;;;21.84;100.00;99732.44;5320586;26;20007;-68
2024/04/10 07:14:04;;;;;;;9.48;6.07;;;;;;;21.85;100.00;99727.88;5213607;27;20003;-68
2024/04/10 07:16:32;;;;;;;10.95;6.07;;;;;;;21.92;100.00;99724.03;5174064;27;20086;-67
2024/04/10 07:18:59;;;;;;;12.93;6.00;;;;;;;22.09;100.00;99730.44;5228004;27;20007;-68
2024/04/10 07:21:30;;;;;;;8.73;5.65;;;;;;;22.17;100.00;99723.88;5239588;27;20015;-69
2024/04/10 07:24:01;;;;;;;8.55;5.95;;;;;;;22.32;100.00;99730.53;5240880;27;20076;-68
2024/04/10 07:26:32;;;;;;;12.90;5.43;;;;;;;22.67;100.00;99727.91;5240069;27;20011;-68
2024/04/10 07:28:59;;;;;;;7.38;5.10;;;;;;;22.81;100.00;99734.75;5212529;27;20107;-68
2024/04/10 07:31:35;;;;;;;7.97;4.72;;;;;;;23.08;100.00;99736.75;5240621;27;20091;-68
2024/04/10 07:34:03;;;;;;;7.90;5.22;;;;;;;23.45;100.00;99734.63;5246643;27;20025;-68
2024/04/10 07:36:38;;;;;;;12.27;6.35;;;;;;;24.33;100.00;99745.91;5273951;27;20333;-68
2024/04/10 07:39:06;;;;;;;11.82;6.97;;;;;;;26.24;100.00;99747.69;5245629;27;20477;-69
2024/04/10 07:41:33;;;;;;;8.98;4.68;;;;;;;29.11;100.00;99742.56;5278402;27;20002;-68
2024/04/10 07:44:02;;;;;;;7.22;4.72;;;;;;;32.00;92.70;99747.41;5276486;27;20006;-69
2024/04/10 07:46:31;;;;;;;7.03;4.28;;;;;;;34.58;70.07;99748.75;5247302;27;20017;-69
2024/04/10 07:48:58;;;;;;;7.07;4.53;;;;;;;36.61;54.54;99748.00;5307746;27;20379;-70
2024/04/10 07:51:29;;;;;;;7.35;4.45;;;;;;;38.35;45.83;99755.88;5307107;27;20019;-71
2024/04/10 07:54:16;;;;;;;7.53;3.65;;;;;;;39.70;38.70;99743.75;5183399;27;20158;-69
2024/04/10 07:56:51;;;;;;;6.80;3.95;;;;;;;40.70;34.92;99749.31;5252791;27;20018;-69
2024/04/10 07:59:21;;;;;;;5.97;4.18;;;;;;;41.37;31.43;99738.03;5250874;27;20046;-70
2024/04/10 08:01:48;;;;;;;5.78;3.50;;;;;;;42.13;30.04;99729.19;5243713;27;20089;-70
2024/04/10 08:04:14;;;;;;;6.30;3.60;;;;;;;42.81;27.80;99709.91;5216539;27;20010;-70
2024/04/10 08:06:41;;;;;;;7.32;4.15;;;;;;;43.37;25.94;99715.72;5221359;27;20071;-70
2024/04/10 08:09:07;;;;;;;5.95;3.40;;;;;;;44.00;25.76;99706.41;5182256;27;20003;-70
2024/04/10 08:11:36;;;;;;;5.03;3.40;;;;;;;44.53;24.49;99704.34;5221238;27;20043;-70
2024/04/10 08:14:03;;;;;;;5.35;3.75;;;;;;;44.88;23.84;99718.78;5253459;27;20047;-70
2024/04/10 08:16:34;;;;;;;5.45;3.25;;;;;;;45.43;22.77;99716.97;5228530;27;20462;-70
2024/04/10 08:19:00;;;;;;;7.20;2.83;;;;;;;45.76;21.15;99711.25;5251408;27;20042;-70
2024/04/10 08:21:26;;;;;;;5.85;3.10;;;;;;;46.25;20.77;99705.13;5222104;27;20417;-71
2024/04/10 08:23:53;;;;;;;6.90;3.35;;;;;;;46.12;20.63;99697.06;5246785;26;20020;-71
2024/04/10 08:26:22;;;;;;;6.32;3.20;;;;;;;46.56;20.35;99702.50;5355625;26;20457;-70
2024/04/10 08:28:53;;;;;;;5.00;3.10;;;;;;;47.14;19.30;99696.59;5342384;26;20442;-71
2024/04/10 08:31:30;;;;;;;4.07;2.70;;;;;;;47.42;18.28;99696.66;5274267;27;20018;-71
2024/04/10 08:33:58;;;;;;;5.50;2.58;;;;;;;47.83;18.31;99697.00;5287708;26;20061;-73
2024/04/10 08:36:33;;;;;;;6.97;2.95;;;;;;;48.17;17.33;99692.53;5245821;27;20098;-75
2024/04/10 08:38:59;;;;;;;2.65;1.90;;;;;;;48.24;16.89;99698.16;5148071;27;20008;-72
2024/04/10 08:41:29;;;;;;;4.72;2.67;;;;;;;47.88;16.80;99702.25;5149490;27;20012;-71
2024/04/10 08:43:59;;;;;;;3.78;2.33;;;;;;;47.60;17.66;99689.84;5126806;27;20053;-70
2024/04/10 08:46:28;;;;;;;4.80;2.38;;;;;;;47.69;17.05;99694.25;5114462;27;20437;-73
2024/04/10 08:48:57;;;;;;;4.97;2.15;;;;;;;48.07;16.87;99685.72;5077205;28;20497;-71
2024/04/10 08:51:26;;;;;;;3.47;2.50;;;;;;;48.83;16.26;99680.16;5078363;28;20008;-71
2024/04/10 08:53:55;;;;;;;3.90;2.17;;;;;;;49.60;15.36;99688.06;5077940;28;20439;-69
2024/04/10 08:56:24;;;;;;;6.00;2.40;;;;;;;50.04;15.32;99693.69;5078329;28;20051;-70
2024/04/10 08:58:53;;;;;;;6.10;2.55;;;;;;;49.56;14.69;99670.38;5078392;28;20003;-67
2024/04/10 09:01:37;;;;;;;3.78;1.88;;;;;;;48.63;14.61;99684.72;5054839;27;20494;-69
2024/04/10 09:04:08;;;;;;;5.10;2.20;;;;;;;46.29;17.07;99680.69;5140426;27;20009;-67
2024/04/10 09:06:35;;;;;;;3.20;2.20;;;;;;;46.60;16.49;99677.19;5146300;27;20017;-67
2024/04/10 09:09:06;;;;;;;3.88;2.47;;;;;;;45.73;17.08;99667.88;5145168;27;20013;-71
2024/04/10 09:11:32;;;;;;;2.95;1.98;;;;;;;46.32;17.14;99661.00;5091745;27;20611;-71
2024/04/10 09:14:10;;;;;;;3.53;2.15;;;;;;;47.01;16.46;99659.63;5125855;27;20016;-70
2024/04/10 09:16:37;;;;;;;2.92;2.10;;;;;;;47.98;16.15;99656.38;5129485;27;20004;-68
2024/04/10 09:19:18;;;;;;;3.08;2.10;;;;;;;48.92;14.65;99666.41;5198795;27;20004;-68
2024/04/10 09:21:55;;;;;;;4.50;2.03;;;;;;;49.55;14.30;99660.28;5219991;27;20328;-69
2024/04/10 09:24:24;;;;;;;4.57;2.20;;;;;;;49.52;14.19;99658.28;5232121;27;20089;-68
2024/04/10 09:26:58;;;;;;;3.00;1.90;;;;;;;49.35;14.76;99656.44;5172909;27;20362;-69
2024/04/10 09:29:31;;;;;;;6.15;3.63;;;;;;;49.92;13.85;99670.78;5126221;27;20005;-71
2024/04/10 09:32:04;;;;;;;;;;;;;;;49.19;13.90;99672.28;5159414;27;20459;-69
2024/04/10 09:34:34;;;;;;;4.03;2.03;;;;;;;48.18;15.15;99672.41;5134408;27;20239;-68
2024/04/10 09:37:01;;;;;;;4.70;2.13;;;;;;;48.08;15.18;99676.06;5135407;27;20015;-69
2024/04/10 09:39:27;;;;;;;4.10;2.50;;;;;;;48.91;14.16;99685.38;5157076;27;20192;-69
2024/04/10 09:41:58;;;;;;;2.63;1.98;;;;;;;49.71;14.23;99697.28;5184984;27;20043;-68
2024/04/10 09:44:28;;;;;;;6.88;2.40;;;;;;;50.83;13.16;99689.47;5249580;27;20005;-69
2024/04/10 09:47:00;;;;;;;6.15;2.30;;;;;;;51.17;12.75;99689.38;5243452;27;20006;-69
2024/04/10 09:49:28;;;;;;;4.32;2.53;;;;;;;51.09;12.83;99683.03;5271155;27;20003;-69
2024/04/10 09:52:00;;;;;;;3.22;2.40;;;;;;;51.23;12.56;99687.66;5243866;27;20042;-67
2024/04/10 09:54:27;;;;;;;5.38;1.70;;;;;;;51.15;12.01;99681.31;5243137;27;20069;-69
2024/04/10 09:56:56;;;;;;;3.42;2.30;;;;;;;51.44;12.34;99679.63;5242287;27;20332;-71
2024/04/10 09:59:22;;;;;;;3.87;1.70;;;;;;;50.58;12.64;99672.03;5244058;27;20012;-70
2024/04/10 10:01:54;;;;;;;5.05;1.77;;;;;;;49.52;13.59;99672.41;5216112;27;19999;-68
2024/04/10 10:04:23;;;;;;;4.55;1.70;;;;;;;47.33;14.47;99670.94;5210323;27;20003;-68
2024/04/10 10:07:00;;;;;;;4.90;2.55;;;;;;;44.61;17.18;99666.81;5170087;27;20011;-67
2024/04/10 10:09:25;;;;;;;6.15;2.63;;;;;;;44.79;17.20;99667.03;5123013;27;20003;-69
2024/04/10 10:12:00;;;;;;;5.97;2.00;;;;;;;45.84;16.75;99668.78;5183552;27;20073;-67
2024/04/10 10:14:27;;;;;;;8.30;2.03;;;;;;;46.25;16.25;99675.03;5214879;27;20006;-67
2024/04/10 10:17:07;;;;;;;4.40;2.60;;;;;;;46.21;16.44;99668.56;5243516;27;20189;-67
2024/04/10 10:19:35;;;;;;;10.25;3.30;;;;;;;46.67;15.95;99674.41;5232271;27;20014;-68
2024/04/10 10:22:01;;;;;;;5.82;2.53;;;;;;;47.21;15.74;99669.31;5237324;27;20035;-68
2024/04/10 10:24:30;;;;;;;4.63;2.83;;;;;;;47.84;15.07;99676.09;5236827;27;20063;-68
2024/04/10 10:26:57;;;;;;;;;;;;;;;48.39;14.75;99674.34;5209868;27;20079;-68
2024/04/10 10:29:22;;;;;;;4.28;2.58;;;;;;;48.40;14.37;99684.41;5182258;27;20344;-69
2024/04/10 10:31:49;;;;;;;4.85;2.88;;;;;;;48.75;13.98;99675.78;5208860;27;19999;-67
2024/04/10 10:34:22;;;;;;;3.57;2.17;;;;;;;48.90;14.00;99685.78;5239813;27;20127;-68
2024/04/10 10:36:50;;;;;;;5.15;2.45;;;;;;;48.62;14.35;99680.31;5181153;27;20035;-67
2024/04/10 10:39:26;;;;;;;6.28;1.92;;;;;;;48.49;14.41;99668.66;5271072;27;20010;-68
2024/04/10 10:42:00;;;;;;;3.25;1.67;;;;;;;47.49;14.92;99665.66;5242834;27;20018;-70
2024/04/10 10:44:27;;;;;;;6.10;2.58;;;;;;;45.35;16.13;99667.59;5305751;26;19998;-70
2024/04/10 10:46:57;;;;;;;4.65;2.88;;;;;;;44.27;17.64;99666.00;5310959;26;20383;-71
2024/04/10 10:49:25;;;;;;;4.00;1.90;;;;;;;43.98;18.21;99654.78;5339890;26;20011;-70
2024/04/10 10:51:56;;;;;;;4.43;2.13;;;;;;;42.98;19.08;99651.53;5351725;26;20115;-69
2024/04/10 10:54:22;;;;;;;5.10;2.63;;;;;;;42.77;19.65;99651.16;5322567;26;20000;-71
2024/04/10 10:56:49;;;;;;;3.35;1.60;;;;;;;42.43;19.50;99651.22;5378835;26;20023;-70
2024/04/10 10:59:15;;;;;;;3.92;1.73;;;;;;;41.35;20.78;99659.50;5380364;26;20035;-70
2024/04/10 11:01:47;;;;;;;4.85;2.20;;;;;;;40.80;21.90;99654.06;5379536;26;19996;-71
2024/04/10 11:04:16;;;;;;;4.47;2.38;;;;;;;40.67;22.32;99649.72;5379939;26;20065;-69
2024/04/10 11:06:43;;;;;;;6.30;2.60;;;;;;;40.72;22.36;99646.69;5338523;26;20104;-69
2024/04/10 11:09:17;;;;;;;6.57;2.13;;;;;;;41.16;22.00;99647.47;5313756;26;20004;-68
2024/04/10 11:11:46;;;;;;;8.77;2.42;;;;;;;41.16;21.73;99644.69;5341958;26;20468;-69
2024/04/10 11:14:13;;;;;;;5.47;2.30;;;;;;;40.78;22.30;99650.03;5245758;27;20022;-70
2024/04/10 11:16:42;;;;;;;4.55;1.92;;;;;;;40.22;22.55;99652.81;5262206;27;20018;-69
2024/04/10 11:19:08;;;;;;;10.32;2.30;;;;;;;39.60;24.00;99637.72;5217881;27;20003;-69
2024/04/10 11:21:34;;;;;;;5.20;2.20;;;;;;;38.96;25.04;99650.63;5156872;27;20003;-69
2024/04/10 11:24:06;;;;;;;6.82;2.20;;;;;;;38.42;26.04;99653.47;5239617;27;20050;-69
2024/04/10 11:26:32;;;;;;;6.65;2.60;;;;;;;38.03;27.31;99655.88;5197720;27;20007;-69
2024/04/10 11:28:59;;;;;;;6.40;2.10;;;;;;;37.60;28.18;99650.63;5198475;27;20019;-68